createdAt,value
2023-05-19T00:02:01.121Z,14.93
2023-05-19T00:04:30.136Z,14.87
2023-05-19T00:07:01.347Z,14.83
2023-05-19T00:09:30.189Z,14.81
2023-05-19T00:11:59.213Z,14.79
2023-05-19T00:14:29.010Z,14.77
2023-05-19T00:16:59.176Z,14.72
2023-05-19T00:19:32.220Z,14.67
2023-05-19T00:22:00.525Z,14.65
2023-05-19T00:24:29.079Z,14.67
2023-05-19T00:26:57.208Z,14.61
2023-05-19T00:29:25.616Z,14.64
2023-05-19T00:31:53.921Z,14.59
2023-05-19T00:34:23.444Z,14.59
2023-05-19T00:36:51.828Z,14.57
2023-05-19T00:39:23.954Z,14.54
2023-05-19T00:41:52.129Z,14.53
2023-05-19T00:44:20.242Z,14.48
2023-05-19T00:46:48.437Z,14.42
2023-05-19T00:49:16.485Z,14.32
2023-05-19T00:51:46.446Z,14.28
2023-05-19T00:54:14.554Z,14.33
2023-05-19T00:56:42.906Z,14.38
2023-05-19T00:59:11.106Z,14.38
2023-05-19T01:01:39.946Z,14.33
2023-05-19T01:04:10.063Z,14.23
2023-05-19T01:06:38.640Z,14.27
2023-05-19T01:09:09.049Z,14.29
2023-05-19T01:11:37.219Z,14.18
2023-05-19T01:14:05.389Z,14.21
2023-05-19T01:16:41.455Z,14.15
2023-05-19T01:19:36.861Z,14.11
2023-05-19T01:22:23.863Z,14.12
2023-05-19T01:25:43.620Z,14.06
2023-05-19T01:28:43.996Z,14.04
2023-05-19T01:31:14.848Z,13.96
2023-05-19T01:33:46.631Z,13.96
2023-05-19T01:36:16.927Z,14.07
2023-05-19T01:38:46.532Z,14.08
2023-05-19T01:41:15.796Z,13.98
2023-05-19T01:43:44.110Z,13.87
2023-05-19T01:46:14.867Z,13.93
2023-05-19T01:48:45.642Z,13.82
2023-05-19T01:51:15.096Z,13.84
2023-05-19T01:53:44.205Z,13.84
2023-05-19T01:56:13.599Z,13.85
2023-05-19T01:58:46.920Z,13.82
2023-05-19T02:01:30.795Z,13.76
2023-05-19T02:04:14.153Z,13.80
2023-05-19T02:06:47.384Z,13.84
2023-05-19T02:09:24.391Z,13.82
2023-05-19T02:11:57.036Z,13.86
2023-05-19T02:14:31.663Z,13.82
2023-05-19T02:17:05.366Z,13.73
2023-05-19T02:19:36.655Z,13.81
2023-05-19T02:22:05.310Z,13.82
2023-05-19T02:24:33.628Z,13.81
2023-05-19T02:27:01.792Z,13.76
2023-05-19T02:29:30.002Z,13.71
2023-05-19T02:31:58.128Z,13.66
2023-05-19T02:34:28.073Z,13.64
2023-05-19T02:36:56.566Z,13.61
2023-05-19T02:39:24.640Z,13.58
2023-05-19T02:41:52.951Z,13.57
2023-05-19T02:44:21.185Z,13.55
2023-05-19T02:46:49.328Z,13.55
2023-05-19T02:49:17.588Z,13.51
2023-05-19T02:51:47.028Z,13.57
2023-05-19T02:54:15.137Z,13.49
2023-05-19T02:56:43.297Z,13.49
2023-05-19T02:59:11.398Z,13.52
2023-05-19T03:01:40.480Z,13.52
2023-05-19T03:04:09.058Z,13.55
2023-05-19T03:06:37.670Z,13.59
2023-05-19T03:09:07.354Z,13.59
2023-05-19T03:11:35.487Z,13.57
2023-05-19T03:14:03.604Z,13.61
2023-05-19T03:16:32.525Z,13.57
2023-05-19T03:19:01.883Z,13.64
2023-05-19T03:21:31.986Z,13.62
2023-05-19T03:24:00.257Z,13.62
2023-05-19T03:26:30.440Z,13.59
2023-05-19T03:28:58.620Z,13.68
2023-05-19T03:31:27.199Z,13.67
2023-05-19T03:33:57.796Z,13.67
2023-05-19T03:36:26.288Z,13.67
2023-05-19T03:38:54.688Z,13.68
2023-05-19T03:41:22.819Z,13.69
2023-05-19T03:43:52.225Z,13.68
2023-05-19T03:46:20.747Z,13.68
2023-05-19T03:48:58.023Z,13.64
2023-05-19T03:51:36.673Z,13.64
2023-05-19T03:54:17.963Z,13.66
2023-05-19T03:56:46.165Z,13.65
2023-05-19T03:59:16.223Z,13.62
2023-05-19T04:01:44.342Z,13.65
2023-05-19T04:04:12.455Z,13.64
2023-05-19T04:06:40.781Z,13.59
2023-05-19T04:09:14.413Z,13.53
2023-05-19T04:11:43.069Z,13.52
2023-05-19T04:14:11.465Z,13.52
2023-05-19T04:16:41.707Z,13.51
2023-05-19T04:19:10.212Z,13.41
2023-05-19T04:21:38.365Z,13.39
2023-05-19T04:24:32.535Z,13.39
2023-05-19T04:27:02.764Z,13.38
2023-05-19T04:29:32.853Z,13.33
2023-05-19T04:32:07.801Z,13.37
2023-05-19T04:34:40.318Z,13.38
2023-05-19T04:37:10.158Z,13.41
2023-05-19T04:39:41.354Z,13.38
2023-05-19T04:42:14.658Z,13.35
2023-05-19T04:44:42.739Z,13.33
2023-05-19T04:47:12.517Z,13.35
2023-05-19T04:49:40.714Z,13.36
2023-05-19T04:52:16.057Z,13.38
2023-05-19T04:54:44.297Z,13.40
2023-05-19T04:57:15.021Z,13.35
2023-05-19T04:59:43.330Z,13.40
2023-05-19T05:02:13.208Z,13.27
2023-05-19T05:04:44.119Z,13.27
2023-05-19T05:07:15.463Z,13.27
2023-05-19T05:09:44.217Z,13.29
2023-05-19T05:12:38.922Z,13.28
2023-05-19T05:15:09.141Z,13.31
2023-05-19T05:17:40.172Z,13.26
2023-05-19T05:20:10.143Z,13.23
2023-05-19T05:22:39.600Z,13.18
2023-05-19T05:25:11.416Z,13.10
2023-05-19T05:27:39.651Z,13.18
2023-05-19T05:30:10.476Z,13.33
2023-05-19T05:32:40.866Z,13.29
2023-05-19T05:35:16.393Z,13.28
2023-05-19T05:37:44.734Z,13.36
2023-05-19T05:40:14.299Z,13.38
2023-05-19T05:42:44.290Z,13.35
2023-05-19T05:45:12.921Z,13.29
2023-05-19T05:47:44.191Z,13.43
2023-05-19T05:50:14.531Z,13.39
2023-05-19T05:52:46.659Z,13.56
2023-05-19T05:55:18.361Z,13.74
2023-05-19T05:57:48.759Z,13.82
2023-05-19T06:00:18.298Z,13.73
2023-05-19T06:02:54.831Z,13.49
2023-05-19T06:05:23.223Z,13.58
2023-05-19T06:07:51.490Z,13.44
2023-05-19T06:10:24.297Z,13.53
2023-05-19T06:12:52.683Z,13.71
2023-05-19T06:15:22.823Z,13.67
2023-05-19T06:18:12.819Z,13.60
2023-05-19T06:20:41.415Z,13.53
2023-05-19T06:23:09.733Z,13.69
2023-05-19T06:25:37.942Z,13.80
2023-05-19T06:28:06.972Z,13.70
2023-05-19T06:30:36.715Z,13.60
2023-05-19T06:33:23.054Z,13.43
2023-05-19T06:35:51.291Z,13.66
2023-05-19T06:38:19.536Z,13.65
2023-05-19T06:40:47.902Z,13.82
2023-05-19T06:43:16.085Z,14.06
2023-05-19T06:45:56.097Z,13.89
2023-05-19T06:48:27.658Z,13.98
2023-05-19T06:50:56.065Z,13.80
2023-05-19T06:53:25.694Z,14.07
2023-05-19T06:55:59.815Z,14.35
2023-05-19T06:58:35.055Z,14.35
2023-05-19T07:01:06.275Z,14.39
2023-05-19T07:03:41.916Z,14.32
2023-05-19T07:06:11.622Z,14.37
2023-05-19T07:08:39.870Z,14.41
2023-05-19T07:11:09.536Z,14.67
2023-05-19T07:13:37.666Z,14.64
2023-05-19T07:16:06.602Z,14.60
2023-05-19T07:18:35.490Z,14.65
2023-05-19T07:21:05.577Z,14.83
2023-05-19T07:23:33.757Z,14.99
2023-05-19T07:26:02.073Z,14.89
2023-05-19T07:28:30.194Z,14.97
2023-05-19T07:30:58.379Z,15.01
2023-05-19T07:33:27.014Z,15.10
2023-05-19T07:35:55.172Z,15.21
2023-05-19T07:38:24.611Z,15.28
2023-05-19T07:40:52.776Z,15.34
2023-05-19T07:43:21.034Z,15.35
2023-05-19T07:45:49.220Z,15.40
2023-05-19T07:48:18.739Z,15.22
2023-05-19T07:50:47.258Z,15.11
2023-05-19T07:53:15.521Z,15.13
2023-05-19T07:55:45.283Z,15.14
2023-05-19T07:58:13.433Z,15.13
2023-05-19T08:00:43.094Z,15.51
2023-05-19T08:03:11.593Z,15.46
2023-05-19T08:05:40.630Z,15.30
2023-05-19T08:08:09.557Z,15.38
2023-05-19T08:10:38.021Z,15.43
2023-05-19T08:13:07.463Z,15.40
2023-05-19T08:15:35.814Z,15.33
2023-05-19T08:18:05.369Z,15.40
2023-05-19T08:20:34.129Z,15.27
2023-05-19T08:23:02.776Z,15.26
2023-05-19T08:25:31.270Z,15.23
2023-05-19T08:27:59.457Z,15.22
2023-05-19T08:30:29.042Z,15.31
2023-05-19T08:32:57.204Z,15.16
2023-05-19T08:35:25.899Z,15.35
2023-05-19T08:37:54.057Z,15.30
2023-05-19T08:40:22.625Z,15.41
2023-05-19T08:42:51.347Z,15.41
2023-05-19T08:45:19.535Z,15.32
2023-05-19T08:47:50.002Z,15.42
2023-05-19T08:50:24.868Z,15.41
2023-05-19T08:52:57.745Z,15.49
2023-05-19T08:55:35.190Z,15.44
2023-05-19T08:58:06.017Z,15.48
2023-05-19T09:00:34.810Z,15.44
2023-05-19T09:03:17.422Z,15.50
2023-05-19T09:05:47.388Z,15.35
2023-05-19T09:08:16.113Z,15.30
2023-05-19T09:10:44.304Z,15.22
2023-05-19T09:13:12.607Z,15.12
2023-05-19T09:15:41.363Z,15.27
2023-05-19T09:18:13.020Z,15.40
2023-05-19T09:20:43.807Z,15.44
2023-05-19T09:23:14.941Z,15.55
2023-05-19T09:25:51.089Z,15.59
2023-05-19T09:28:27.336Z,15.53
2023-05-19T09:31:03.131Z,15.51
2023-05-19T09:33:35.350Z,15.47
2023-05-19T09:36:06.039Z,15.46
2023-05-19T09:38:34.423Z,15.44
2023-05-19T09:41:02.991Z,15.40
2023-05-19T09:43:33.473Z,15.33
2023-05-19T09:46:06.831Z,15.16
2023-05-19T09:48:37.302Z,15.28
2023-05-19T09:51:07.853Z,15.30
2023-05-19T09:53:38.933Z,15.27
2023-05-19T09:56:09.779Z,15.31
2023-05-19T09:58:39.097Z,15.35
2023-05-19T10:01:08.020Z,15.30
2023-05-19T10:03:38.932Z,15.47
2023-05-19T10:06:09.150Z,15.45
2023-05-19T10:08:38.740Z,15.58
2023-05-19T10:11:07.664Z,15.55
2023-05-19T10:13:38.496Z,15.49
2023-05-19T10:16:07.979Z,15.64
2023-05-19T10:18:40.110Z,15.77
2023-05-19T10:21:09.797Z,15.65
2023-05-19T10:23:38.087Z,15.57
2023-05-19T10:26:07.894Z,15.70
2023-05-19T10:28:40.580Z,15.71
2023-05-19T10:31:12.690Z,15.63
2023-05-19T10:34:14.710Z,15.91
2023-05-19T10:36:48.657Z,15.93
2023-05-19T10:39:23.054Z,16.02
2023-05-19T10:42:05.759Z,16.05
2023-05-19T10:45:03.639Z,15.96
2023-05-19T10:47:32.640Z,15.99
2023-05-19T10:50:06.813Z,15.91
2023-05-19T10:52:39.174Z,16.04
2023-05-19T10:55:10.292Z,16.06
2023-05-19T10:57:38.544Z,15.89
2023-05-19T11:00:31.447Z,15.85
2023-05-19T11:03:15.038Z,15.85
2023-05-19T11:05:45.699Z,16.00
2023-05-19T11:08:15.870Z,15.90
2023-05-19T11:10:46.610Z,15.92
2023-05-19T11:13:23.021Z,15.99
2023-05-19T11:15:52.827Z,16.01
2023-05-19T11:18:21.638Z,15.92
2023-05-19T11:21:02.744Z,15.91
2023-05-19T11:23:39.212Z,15.81
2023-05-19T11:26:42.979Z,15.77
2023-05-19T11:29:15.655Z,15.78
2023-05-19T11:31:45.309Z,15.99
2023-05-19T11:34:17.407Z,16.01
2023-05-19T11:36:48.230Z,16.02
2023-05-19T11:39:17.711Z,16.11
2023-05-19T11:41:46.136Z,16.04
2023-05-19T11:44:14.425Z,16.07
2023-05-19T11:46:42.611Z,15.95
2023-05-19T11:49:11.118Z,16.00
2023-05-19T11:51:39.884Z,16.03
2023-05-19T11:54:09.522Z,15.85
2023-05-19T11:56:41.711Z,16.02
2023-05-19T11:59:10.490Z,16.17
2023-05-19T12:01:38.634Z,16.11
2023-05-19T12:04:10.258Z,16.09
2023-05-19T12:06:38.473Z,16.19
2023-05-19T12:09:06.855Z,16.14
2023-05-19T12:11:36.432Z,16.13
2023-05-19T12:14:04.707Z,16.15
2023-05-19T12:16:36.213Z,16.21
2023-05-19T12:19:07.210Z,16.32
2023-05-19T12:21:36.218Z,16.39
2023-05-19T12:24:06.043Z,16.21
2023-05-19T12:26:36.494Z,16.28
2023-05-19T12:29:07.694Z,16.31
2023-05-19T12:31:36.378Z,16.31
2023-05-19T12:34:04.620Z,16.23
2023-05-19T12:36:33.805Z,16.35
2023-05-19T12:39:02.145Z,16.35
2023-05-19T12:41:30.740Z,16.36
2023-05-19T12:44:03.814Z,16.42
2023-05-19T12:46:34.234Z,16.45
2023-05-19T12:49:02.561Z,16.35
2023-05-19T12:51:54.654Z,16.50
2023-05-19T12:54:23.162Z,16.50
2023-05-19T12:56:52.477Z,16.48
2023-05-19T12:59:37.975Z,16.50
2023-05-19T13:02:07.970Z,16.29
2023-05-19T13:04:36.355Z,16.37
2023-05-19T13:07:04.910Z,16.27
2023-05-19T13:09:35.228Z,16.38
2023-05-19T13:12:04.742Z,16.23
2023-05-19T13:14:34.288Z,16.39
2023-05-19T13:17:03.273Z,16.43
2023-05-19T13:19:31.443Z,16.41
2023-05-19T13:21:59.931Z,16.43
2023-05-19T13:24:28.095Z,16.53
2023-05-19T13:26:56.338Z,16.48
2023-05-19T13:29:24.681Z,16.51
2023-05-19T13:31:54.500Z,16.56
2023-05-19T13:34:23.239Z,16.56
2023-05-19T13:36:51.462Z,16.48
2023-05-19T13:39:19.866Z,16.54
2023-05-19T13:41:47.995Z,16.49
2023-05-19T13:44:16.676Z,16.51
2023-05-19T13:46:46.515Z,16.49
2023-05-19T13:49:17.592Z,16.52
2023-05-19T13:51:45.755Z,16.52
2023-05-19T13:54:19.369Z,16.55
2023-05-19T13:56:48.709Z,16.62
2023-05-19T13:59:17.732Z,16.64
2023-05-19T14:01:46.506Z,16.54
2023-05-19T14:04:15.288Z,16.53
2023-05-19T14:06:44.974Z,16.58
2023-05-19T14:09:13.759Z,16.58
2023-05-19T14:11:41.892Z,16.61
2023-05-19T14:14:11.455Z,16.56
2023-05-19T14:16:40.067Z,16.56
2023-05-19T14:19:08.552Z,16.60
2023-05-19T14:21:38.053Z,16.60
2023-05-19T14:24:08.097Z,16.44
2023-05-19T14:26:36.560Z,16.55
2023-05-19T14:29:04.954Z,16.57
2023-05-19T14:31:34.262Z,16.54
2023-05-19T14:34:02.503Z,16.51
2023-05-19T14:36:31.162Z,16.54
2023-05-19T14:38:59.253Z,16.58
2023-05-19T14:41:28.974Z,16.67
2023-05-19T14:43:57.085Z,16.59
2023-05-19T14:46:25.232Z,16.61
2023-05-19T14:48:53.347Z,16.68
2023-05-19T14:51:21.731Z,16.74
2023-05-19T14:53:50.354Z,16.70
2023-05-19T14:56:18.530Z,16.63
2023-05-19T14:58:48.001Z,16.68
2023-05-19T15:01:16.295Z,16.70
2023-05-19T15:03:44.507Z,16.71
2023-05-19T15:06:12.635Z,16.65
2023-05-19T15:08:41.115Z,16.71
2023-05-19T15:11:09.297Z,16.72
2023-05-19T15:13:37.383Z,16.79
2023-05-19T15:16:17.295Z,16.85
2023-05-19T15:18:46.097Z,16.65
2023-05-19T15:21:14.386Z,16.73
2023-05-19T15:23:42.544Z,16.78
2023-05-19T15:26:10.873Z,16.83
2023-05-19T15:28:39.117Z,16.83
2023-05-19T15:31:09.303Z,16.80
2023-05-19T15:33:37.720Z,16.69
2023-05-19T15:36:07.073Z,16.76
2023-05-19T15:38:37.120Z,16.82
2023-05-19T15:41:08.852Z,16.70
2023-05-19T15:43:37.119Z,16.68
2023-05-19T15:46:05.945Z,16.75
2023-05-19T15:48:35.605Z,16.75
2023-05-19T15:51:03.837Z,16.86
2023-05-19T15:53:32.021Z,16.79
2023-05-19T15:56:01.432Z,16.79
2023-05-19T15:58:32.620Z,16.78
2023-05-19T16:01:05.285Z,16.78
2023-05-19T16:03:35.099Z,16.89
2023-05-19T16:06:03.579Z,16.89
2023-05-19T16:08:31.864Z,16.86
2023-05-19T16:11:01.763Z,16.90
2023-05-19T16:13:34.181Z,16.89
2023-05-19T16:16:02.955Z,16.90
2023-05-19T16:18:31.115Z,16.92
2023-05-19T16:21:00.573Z,17.01
2023-05-19T16:23:28.764Z,16.94
2023-05-19T16:25:57.509Z,16.95
2023-05-19T16:28:26.019Z,16.88
2023-05-19T16:30:57.648Z,16.92
2023-05-19T16:33:25.987Z,17.06
2023-05-19T16:35:54.185Z,17.12
2023-05-19T16:38:23.780Z,17.15
2023-05-19T16:40:52.011Z,17.20
2023-05-19T16:43:20.137Z,17.05
2023-05-19T16:45:49.121Z,17.16
2023-05-19T16:48:17.275Z,17.09
2023-05-19T16:50:45.444Z,17.04
2023-05-19T16:53:13.597Z,17.11
2023-05-19T16:55:43.082Z,17.03
2023-05-19T16:58:12.053Z,17.05
2023-05-19T17:00:40.304Z,17.11
2023-05-19T17:03:08.778Z,17.15
2023-05-19T17:05:38.980Z,17.16
2023-05-19T17:08:07.198Z,17.13
2023-05-19T17:10:36.034Z,17.17
2023-05-19T17:13:05.760Z,17.25
2023-05-19T17:15:35.272Z,17.24
2023-05-19T17:18:03.652Z,17.20
2023-05-19T17:20:32.261Z,17.27
2023-05-19T17:23:00.707Z,17.30
2023-05-19T17:25:30.688Z,17.28
2023-05-19T17:27:58.757Z,17.29
2023-05-19T17:30:28.335Z,17.29
2023-05-19T17:32:58.956Z,17.25
2023-05-19T17:35:28.552Z,17.27
2023-05-19T17:37:57.912Z,17.25
2023-05-19T17:40:26.194Z,17.26
2023-05-19T17:42:54.320Z,17.25
2023-05-19T17:45:23.259Z,17.28
2023-05-19T17:47:52.733Z,17.28
2023-05-19T17:50:20.847Z,17.27
2023-05-19T17:52:49.808Z,17.28
2023-05-19T17:55:19.081Z,17.28
2023-05-19T17:57:48.363Z,17.23
2023-05-19T18:00:17.453Z,17.23
2023-05-19T18:02:46.725Z,17.23
2023-05-19T18:05:18.463Z,17.24
2023-05-19T18:07:47.047Z,17.21
2023-05-19T18:10:17.272Z,17.22
2023-05-19T18:12:45.949Z,17.15
2023-05-19T18:15:16.988Z,17.08
2023-05-19T18:17:45.136Z,17.08
2023-05-19T18:20:14.407Z,17.06
2023-05-19T18:22:43.996Z,17.03
2023-05-19T18:25:12.112Z,16.96
2023-05-19T18:27:42.548Z,16.93
2023-05-19T18:30:11.463Z,16.85
2023-05-19T18:32:39.887Z,16.80
2023-05-19T18:35:09.496Z,16.75
2023-05-19T18:37:37.814Z,16.72
2023-05-19T18:40:09.491Z,16.70
2023-05-19T18:42:37.800Z,16.62
2023-05-19T18:45:07.502Z,16.58
2023-05-19T18:47:35.702Z,16.53
2023-05-19T18:50:04.307Z,16.50
2023-05-19T18:52:32.463Z,16.48
2023-05-19T18:55:01.581Z,16.43
2023-05-19T18:57:31.041Z,16.40
2023-05-19T18:59:59.316Z,16.34
2023-05-19T19:02:28.315Z,16.29
2023-05-19T19:04:56.879Z,16.24
2023-05-19T19:07:26.722Z,16.20
2023-05-19T19:09:54.918Z,16.14
2023-05-19T19:12:23.148Z,16.08
2023-05-19T19:14:52.616Z,16.05
2023-05-19T19:17:21.040Z,16.02
2023-05-19T19:19:49.694Z,15.96
2023-05-19T19:22:17.976Z,15.93
2023-05-19T19:24:46.362Z,15.88
2023-05-19T19:27:16.342Z,15.83
2023-05-19T19:29:44.705Z,15.80
2023-05-19T19:32:14.220Z,15.72
2023-05-19T19:34:42.367Z,15.68
2023-05-19T19:37:11.084Z,15.64
2023-05-19T19:39:39.459Z,15.62
2023-05-19T19:42:07.667Z,15.57
2023-05-19T19:44:35.867Z,15.55
2023-05-19T19:47:06.150Z,15.54
2023-05-19T19:49:36.107Z,15.48
2023-05-19T19:52:04.607Z,15.48
2023-05-19T19:54:33.138Z,15.45
2023-05-19T19:57:01.656Z,15.39
2023-05-19T19:59:30.590Z,15.33
2023-05-19T20:01:58.873Z,15.36
2023-05-19T20:04:33.391Z,15.32
2023-05-19T20:07:03.141Z,15.37
2023-05-19T20:09:31.315Z,15.41
2023-05-19T20:11:59.466Z,15.34
2023-05-19T20:14:27.658Z,15.33
2023-05-19T20:16:55.863Z,15.34
2023-05-19T20:19:29.097Z,15.34
2023-05-19T20:21:57.340Z,15.26
2023-05-19T20:24:26.910Z,15.25
2023-05-19T20:26:55.094Z,15.21
2023-05-19T20:29:23.879Z,15.18
2023-05-19T20:31:52.055Z,15.21
2023-05-19T20:34:20.235Z,15.21
2023-05-19T20:36:48.468Z,15.21
2023-05-19T20:39:16.605Z,15.20
2023-05-19T20:41:46.242Z,15.21
2023-05-19T20:44:15.256Z,15.22
2023-05-19T20:46:43.461Z,15.21
2023-05-19T20:49:11.627Z,15.25
2023-05-19T20:51:39.767Z,15.25
2023-05-19T20:54:08.096Z,15.20
2023-05-19T20:56:36.357Z,15.15
2023-05-19T20:59:05.965Z,15.11
2023-05-19T21:01:34.158Z,15.07
2023-05-19T21:04:06.671Z,15.09
2023-05-19T21:06:35.478Z,15.11
2023-05-19T21:09:06.537Z,15.14
2023-05-19T21:11:34.844Z,15.16
2023-05-19T21:14:04.912Z,15.17
2023-05-19T21:16:34.006Z,15.13
2023-05-19T21:19:02.762Z,15.15
2023-05-19T21:21:31.666Z,15.15
2023-05-19T21:24:00.426Z,15.12
2023-05-19T21:26:28.515Z,15.13
2023-05-19T21:28:56.935Z,15.11
2023-05-19T21:31:27.822Z,15.10
2023-05-19T21:33:55.954Z,15.11
2023-05-19T21:36:24.069Z,15.14
2023-05-19T21:38:52.236Z,15.15
2023-05-19T21:41:21.263Z,15.17
2023-05-19T21:43:49.482Z,15.11
2023-05-19T21:46:20.306Z,15.09
2023-05-19T21:48:49.803Z,15.06
2023-05-19T21:51:17.828Z,15.00
2023-05-19T21:53:46.150Z,14.95
2023-05-19T21:56:14.537Z,14.85
2023-05-19T21:58:42.663Z,14.86
2023-05-19T22:01:10.934Z,14.88
2023-05-19T22:03:39.172Z,14.88
2023-05-19T22:06:09.322Z,14.79
2023-05-19T22:08:37.974Z,14.79
2023-05-19T22:11:06.721Z,14.78
2023-05-19T22:13:37.389Z,14.76
2023-05-19T22:16:06.170Z,14.75
2023-05-19T22:18:34.415Z,14.76
2023-05-19T22:21:02.610Z,14.66
2023-05-19T22:23:32.223Z,14.60
2023-05-19T22:26:00.850Z,14.64
2023-05-19T22:28:28.985Z,14.67
2023-05-19T22:30:57.217Z,14.67
2023-05-19T22:33:25.322Z,14.65
2023-05-19T22:35:53.548Z,14.60
2023-05-19T22:38:21.746Z,14.56
2023-05-19T22:40:51.254Z,14.53
2023-05-19T22:43:19.424Z,14.50
2023-05-19T22:45:47.630Z,14.46
2023-05-19T22:48:16.312Z,14.41
2023-05-19T22:50:44.501Z,14.36
2023-05-19T22:53:12.586Z,14.35
2023-05-19T22:55:40.846Z,14.37
2023-05-19T22:58:10.307Z,14.40
2023-05-19T23:00:38.395Z,14.37
2023-05-19T23:03:06.550Z,14.38
2023-05-19T23:05:35.369Z,14.40
2023-05-19T23:08:03.791Z,14.37
2023-05-19T23:10:31.946Z,14.40
2023-05-19T23:13:00.072Z,14.43
2023-05-19T23:15:29.663Z,14.42
2023-05-19T23:17:57.844Z,14.41
2023-05-19T23:20:25.989Z,14.41
2023-05-19T23:22:54.135Z,14.45
2023-05-19T23:25:22.287Z,14.45
2023-05-19T23:27:50.376Z,14.49
2023-05-19T23:30:18.731Z,14.53
2023-05-19T23:32:48.293Z,14.53
2023-05-19T23:35:18.204Z,14.59
2023-05-19T23:37:46.297Z,14.64
2023-05-19T23:40:15.010Z,14.74
2023-05-19T23:42:44.558Z,14.81
2023-05-19T23:45:13.099Z,14.82
2023-05-19T23:47:41.358Z,14.93
2023-05-19T23:50:11.721Z,15.00
2023-05-19T23:52:39.880Z,14.99
2023-05-19T23:55:09.859Z,15.09
2023-05-19T23:57:38.135Z,15.18
